Time;durP1;ratioP1;P1;durP2;ratioP2;P2;SDS_P1;SDS_P2;PMS_P1;PMS_P2;Temp;Humidity;BMP_temperature;BMP_pressure;BME280_temperature;BME280_humidity;BME280_pressure;Samples;Min_cycle;Max_cycle;Signal;HPM_P1;HPM_P2
2023/01/25 00:00:51;;;;;;;1999.90;999.90;;;1.80;99.90;;;;;;4982182;28;20484;-70
2023/01/25 00:03:18;;;;;;;1999.90;999.90;;;1.80;99.90;;;;;;4982815;28;20431;-71
2023/01/25 00:05:45;;;;;;;1999.90;999.90;;;1.90;99.90;;;;;;4983476;28;20438;-70
2023/01/25 00:08:11;;;;;;;1999.90;999.90;;;1.60;99.90;;;;;;4985024;28;20492;-70
2023/01/25 00:10:38;;;;;;;1999.90;999.90;;;1.60;99.90;;;;;;4983497;28;20485;-71
2023/01/25 00:13:06;;;;;;;1999.90;999.90;;;1.70;99.90;;;;;;4981489;28;20880;-71
2023/01/25 00:15:32;;;;;;;1999.90;999.90;;;1.70;99.90;;;;;;4986935;28;20438;-71
2023/01/25 00:17:59;;;;;;;1999.90;999.90;;;1.80;99.90;;;;;;4990106;28;20468;-71
2023/01/25 00:20:26;;;;;;;1999.90;999.90;;;1.90;99.90;;;;;;4987142;28;20439;-71
2023/01/25 00:22:53;;;;;;;1999.90;999.90;;;1.80;99.90;;;;;;4987565;28;20430;-70
2023/01/25 00:25:20;;;;;;;1999.90;999.90;;;1.90;99.90;;;;;;4990452;28;20503;-71
2023/01/25 00:27:46;;;;;;;1999.90;999.90;;;2.10;99.90;;;;;;4990796;28;20497;-70
2023/01/25 00:30:15;;;;;;;1999.90;999.90;;;2.10;99.90;;;;;;4984381;28;20496;-70
2023/01/25 00:32:49;;;;;;;1999.90;999.90;;;2.00;99.90;;;;;;4981991;28;20434;-71
2023/01/25 00:35:15;;;;;;;1999.90;999.90;;;1.90;99.90;;;;;;4990704;28;20444;-70
2023/01/25 00:37:44;;;;;;;1999.90;999.90;;;1.80;99.90;;;;;;4990329;28;20484;-71
2023/01/25 00:40:12;;;;;;;1999.90;999.90;;;1.70;99.90;;;;;;4988527;28;20538;-70
2023/01/25 00:42:39;;;;;;;1999.90;999.90;;;1.70;99.90;;;;;;4982845;28;20800;-70
2023/01/25 00:45:08;;;;;;;1999.90;999.90;;;1.70;99.90;;;;;;4990306;28;20438;-71
2023/01/25 00:47:36;;;;;;;1999.90;999.90;;;1.70;99.90;;;;;;4990090;28;20919;-71
2023/01/25 00:50:02;;;;;;;1999.90;999.90;;;1.80;99.90;;;;;;4984765;28;20434;-70
2023/01/25 00:52:29;;;;;;;1999.90;999.90;;;1.80;99.90;;;;;;4981376;28;20492;-71
2023/01/25 00:54:55;;;;;;;1999.90;999.90;;;1.80;99.90;;;;;;4986944;28;20442;-71
2023/01/25 00:57:22;;;;;;;1999.90;999.90;;;1.90;99.90;;;;;;4989828;28;20870;-70
2023/01/25 00:59:49;;;;;;;1999.90;999.90;;;1.90;99.90;;;;;;4989444;28;20437;-71
2023/01/25 01:02:16;;;;;;;1999.90;999.90;;;1.80;99.90;;;;;;4982057;28;20438;-71
2023/01/25 01:04:44;;;;;;;1999.90;999.90;;;1.80;99.90;;;;;;4985083;28;21009;-70
2023/01/25 01:07:12;;;;;;;1999.90;999.90;;;1.80;99.90;;;;;;4988283;28;20528;-70
2023/01/25 01:09:39;;;;;;;1999.90;999.90;;;1.70;99.90;;;;;;4989200;28;20548;-70
2023/01/25 01:12:06;;;;;;;1999.90;999.90;;;1.70;99.90;;;;;;4981586;28;20533;-70
2023/01/25 01:14:32;;;;;;;1999.90;999.90;;;1.70;99.90;;;;;;4988583;28;20438;-71
2023/01/25 01:16:59;;;;;;;1999.90;999.90;;;1.70;99.90;;;;;;4989633;28;20434;-70
2023/01/25 01:19:26;;;;;;;1999.90;999.90;;;1.80;99.90;;;;;;4988072;28;20442;-70
2023/01/25 01:21:54;;;;;;;1999.90;999.90;;;1.90;99.90;;;;;;4981697;28;20426;-70
2023/01/25 01:24:20;;;;;;;1999.90;999.90;;;1.70;99.90;;;;;;4981305;28;20482;-70
2023/01/25 01:26:47;;;;;;;1999.90;999.90;;;1.80;99.90;;;;;;4986566;28;20439;-70
2023/01/25 01:29:14;;;;;;;1999.90;999.90;;;1.70;99.90;;;;;;4988963;28;21338;-70
2023/01/25 01:31:40;;;;;;;1999.90;999.90;;;1.70;99.90;;;;;;4983217;28;20530;-70
2023/01/25 01:34:07;;;;;;;1999.90;999.90;;;1.70;99.90;;;;;;4984531;28;20493;-70
2023/01/25 01:36:33;;;;;;;1999.90;999.90;;;1.60;99.90;;;;;;4989062;28;20877;-71
2023/01/25 01:39:01;;;;;;;1999.90;999.90;;;1.60;99.90;;;;;;4988698;28;20438;-71
2023/01/25 01:41:28;;;;;;;1999.90;999.90;;;1.60;99.90;;;;;;4989713;28;20438;-70
2023/01/25 01:43:55;;;;;;;1999.90;999.90;;;1.60;99.90;;;;;;4982397;28;20434;-70
2023/01/25 01:46:27;;;;;;;1999.90;999.90;;;1.60;99.90;;;;;;4989788;28;20430;-70
2023/01/25 01:48:58;;;;;;;1999.90;999.90;;;1.70;99.90;;;;;;4988923;28;20489;-70
2023/01/25 01:51:32;;;;;;;1999.90;999.90;;;1.60;99.90;;;;;;4985981;28;20436;-70
2023/01/25 01:54:05;;;;;;;1999.90;999.90;;;1.60;99.90;;;;;;4978601;28;20816;-70
2023/01/25 01:56:36;;;;;;;1999.90;999.90;;;1.90;99.90;;;;;;4988972;28;20455;-71
2023/01/25 01:59:05;;;;;;;1999.90;999.90;;;1.60;99.90;;;;;;4987838;28;20434;-70
2023/01/25 02:01:32;;;;;;;1999.90;999.90;;;1.90;99.90;;;;;;4985286;28;20441;-71
2023/01/25 02:04:01;;;;;;;1999.90;999.90;;;1.70;99.90;;;;;;4981809;28;20907;-70
2023/01/25 02:06:32;;;;;;;1999.90;999.90;;;1.60;99.90;;;;;;4988173;28;20434;-71
2023/01/25 02:09:00;;;;;;;1999.90;999.90;;;1.70;99.90;;;;;;4988767;28;20918;-70
2023/01/25 02:11:29;;;;;;;1999.90;999.90;;;2.30;99.90;;;;;;4981555;28;20483;-70
2023/01/25 02:13:56;;;;;;;1999.90;999.90;;;1.50;99.90;;;;;;4981252;28;20438;-70
2023/01/25 02:16:25;;;;;;;1999.90;999.90;;;2.00;99.90;;;;;;4986882;28;20947;-70
2023/01/25 02:18:54;;;;;;;1999.90;999.90;;;1.50;99.90;;;;;;4989207;28;20496;-70
2023/01/25 02:21:23;;;;;;;1999.90;999.90;;;1.50;99.90;;;;;;4980021;28;20932;-70
2023/01/25 02:23:54;;;;;;;1999.90;999.90;;;1.40;99.90;;;;;;4980651;28;20481;-71
2023/01/25 02:26:23;;;;;;;1999.90;999.90;;;1.30;99.90;;;;;;4987386;28;20438;-70
2023/01/25 02:28:53;;;;;;;1999.90;999.90;;;1.20;99.90;;;;;;4988541;28;20438;-71
2023/01/25 02:31:20;;;;;;;1999.90;999.90;;;1.20;99.90;;;;;;4981932;28;20836;-71
2023/01/25 02:33:47;;;;;;;1999.90;999.90;;;1.20;99.90;;;;;;4979304;28;20432;-71
2023/01/25 02:36:19;;;;;;;1999.90;999.90;;;1.30;99.90;;;;;;4975328;28;20978;-71
2023/01/25 02:38:51;;;;;;;1999.90;999.90;;;1.30;99.90;;;;;;4984282;28;20915;-71
2023/01/25 02:41:31;;;;;;;1999.90;999.90;;;1.40;99.90;;;;;;4980987;28;20452;-70
2023/01/25 02:43:58;;;;;;;1999.90;999.90;;;1.40;99.90;;;;;;4979788;28;20465;-70
2023/01/25 02:46:27;;;;;;;1999.90;999.90;;;1.40;99.90;;;;;;4987009;28;20493;-70
2023/01/25 02:48:55;;;;;;;1999.90;999.90;;;1.40;99.90;;;;;;4988425;28;20438;-71
2023/01/25 02:51:22;;;;;;;1999.90;999.90;;;1.30;99.90;;;;;;4980714;28;20441;-70
2023/01/25 02:53:49;;;;;;;1999.90;999.90;;;1.40;99.90;;;;;;4978546;28;20429;-71
2023/01/25 02:56:16;;;;;;;1999.90;999.90;;;1.30;99.90;;;;;;4985727;28;20445;-70
2023/01/25 02:58:45;;;;;;;1999.90;999.90;;;1.20;99.90;;;;;;4987679;28;20869;-71
2023/01/25 03:01:12;;;;;;;1999.90;999.90;;;1.60;99.90;;;;;;4980347;28;20979;-70
2023/01/25 03:03:39;;;;;;;1999.90;999.90;;;1.40;99.90;;;;;;4977487;28;20450;-71
2023/01/25 03:06:07;;;;;;;1999.90;999.90;;;1.40;99.90;;;;;;4986577;28;20435;-71
2023/01/25 03:08:34;;;;;;;1999.90;999.90;;;1.30;99.90;;;;;;4989024;28;20438;-70
2023/01/25 03:11:02;;;;;;;1999.90;999.90;;;1.40;99.90;;;;;;4986422;28;20439;-71
2023/01/25 03:13:30;;;;;;;1999.90;999.90;;;1.50;99.90;;;;;;4975675;28;20482;-72
2023/01/25 03:16:01;;;;;;;1999.90;999.90;;;1.60;99.90;;;;;;4988179;28;20450;-71
2023/01/25 03:18:28;;;;;;;1999.90;999.90;;;1.60;99.90;;;;;;4987525;28;20432;-71
2023/01/25 03:20:54;;;;;;;1999.90;999.90;;;1.90;99.90;;;;;;4984041;28;20494;-71
2023/01/25 03:23:21;;;;;;;1999.90;999.90;;;1.60;99.90;;;;;;4977561;28;20441;-71
2023/01/25 03:25:48;;;;;;;1999.90;999.90;;;1.50;99.90;;;;;;4988226;28;20492;-71
2023/01/25 03:28:14;;;;;;;1999.90;999.90;;;1.50;99.90;;;;;;4985488;28;20870;-71
2023/01/25 03:30:41;;;;;;;1999.90;999.90;;;1.50;99.90;;;;;;4988633;28;20438;-70
2023/01/25 03:33:09;;;;;;;1999.90;999.90;;;1.30;99.90;;;;;;4984289;28;20442;-70
2023/01/25 03:35:36;;;;;;;1999.90;999.90;;;1.40;99.90;;;;;;4976975;28;20490;-71
2023/01/25 03:38:02;;;;;;;1999.90;999.90;;;1.60;99.90;;;;;;4987940;28;20434;-70
2023/01/25 03:40:29;;;;;;;1999.90;999.90;;;1.60;99.90;;;;;;4986869;28;20790;-71
2023/01/25 03:42:55;;;;;;;1999.90;999.90;;;1.60;99.90;;;;;;4986946;28;20492;-71
2023/01/25 03:45:22;;;;;;;1999.90;999.90;;;1.60;99.90;;;;;;4983241;28;20436;-71
2023/01/25 03:47:49;;;;;;;1999.90;999.90;;;1.60;99.90;;;;;;4983335;28;20492;-71
2023/01/25 03:50:17;;;;;;;1999.90;999.90;;;1.70;99.90;;;;;;4989962;28;20910;-71
2023/01/25 03:52:46;;;;;;;1999.90;999.90;;;1.80;99.90;;;;;;4985538;28;20469;-71
2023/01/25 03:55:12;;;;;;;1999.90;999.90;;;1.80;99.90;;;;;;4989088;28;20458;-71
2023/01/25 03:57:39;;;;;;;1999.90;999.90;;;1.80;99.90;;;;;;4981819;28;20510;-71
2023/01/25 04:00:08;;;;;;;1999.90;999.90;;;1.60;99.90;;;;;;4982295;28;20441;-70
2023/01/25 04:02:34;;;;;;;1999.90;999.90;;;1.60;99.90;;;;;;4991939;28;20504;-71
2023/01/25 04:05:01;;;;;;;1999.90;999.90;;;1.70;99.90;;;;;;4991822;28;20508;-71
2023/01/25 04:07:29;;;;;;;1999.90;999.90;;;1.70;99.90;;;;;;4989561;28;20439;-71
2023/01/25 04:09:55;;;;;;;1999.90;999.90;;;1.50;99.90;;;;;;4980247;28;20467;-71
2023/01/25 04:12:22;;;;;;;1999.90;999.90;;;1.60;99.90;;;;;;4984375;28;21005;-71
2023/01/25 04:14:49;;;;;;;1999.90;999.90;;;1.60;99.90;;;;;;4990811;28;20480;-70
2023/01/25 04:17:15;;;;;;;1999.90;999.90;;;1.70;99.90;;;;;;4983702;28;20436;-71
2023/01/25 04:19:42;;;;;;;1999.90;999.90;;;1.80;99.90;;;;;;4987182;28;20494;-71
2023/01/25 04:22:08;;;;;;;1999.90;999.90;;;1.80;99.90;;;;;;4991355;28;20434;-70
2023/01/25 04:24:36;;;;;;;1999.90;999.90;;;1.90;99.90;;;;;;4989643;28;20512;-71
2023/01/25 04:27:03;;;;;;;1999.90;999.90;;;1.50;99.90;;;;;;4989464;28;20850;-70
2023/01/25 04:29:30;;;;;;;1999.90;999.90;;;1.40;99.90;;;;;;4990797;28;20493;-71
2023/01/25 04:31:56;;;;;;;1999.90;999.90;;;1.50;99.90;;;;;;4992116;28;20961;-71
2023/01/25 04:34:23;;;;;;;1999.90;999.90;;;1.50;99.90;;;;;;4990509;28;20489;-71
2023/01/25 04:36:50;;;;;;;1999.90;999.90;;;1.60;99.90;;;;;;4990105;28;20927;-70
2023/01/25 04:39:17;;;;;;;1999.90;999.90;;;1.50;99.90;;;;;;4987867;28;20434;-70
2023/01/25 04:41:45;;;;;;;1999.90;999.90;;;1.60;99.90;;;;;;4990140;28;20501;-71
2023/01/25 04:44:11;;;;;;;1999.90;999.90;;;1.60;99.90;;;;;;4990818;28;20438;-71
2023/01/25 04:46:38;;;;;;;1999.90;999.90;;;1.70;99.90;;;;;;4990060;28;20496;-71
2023/01/25 04:49:05;;;;;;;1999.90;999.90;;;1.80;99.90;;;;;;4990693;28;20437;-70
2023/01/25 04:51:31;;;;;;;1999.90;999.90;;;1.90;99.90;;;;;;4988556;28;20520;-70
2023/01/25 04:53:58;;;;;;;1999.90;999.90;;;1.70;99.90;;;;;;4989717;28;20434;-71
2023/01/25 04:56:25;;;;;;;1999.90;999.90;;;1.50;99.90;;;;;;4988774;28;20446;-70
2023/01/25 04:58:53;;;;;;;1999.90;999.90;;;1.60;99.90;;;;;;4990180;28;20430;-70
2023/01/25 05:01:19;;;;;;;1999.90;999.90;;;1.30;99.90;;;;;;4988150;28;20922;-71
2023/01/25 05:03:46;;;;;;;1999.90;999.90;;;1.30;99.90;;;;;;4986479;28;20476;-71
2023/01/25 05:06:13;;;;;;;1999.90;999.90;;;1.50;99.90;;;;;;4985788;28;20485;-70
2023/01/25 05:08:39;;;;;;;1999.90;999.90;;;1.00;99.90;;;;;;4988765;28;20442;-70
2023/01/25 05:11:06;;;;;;;1999.90;999.90;;;0.80;99.90;;;;;;4988902;28;20442;-70
2023/01/25 05:13:32;;;;;;;1999.90;999.90;;;1.00;99.90;;;;;;4988232;28;20504;-70
2023/01/25 05:16:00;;;;;;;1999.90;999.90;;;1.20;99.90;;;;;;4986971;28;20430;-70
2023/01/25 05:18:27;;;;;;;1999.90;999.90;;;1.40;99.90;;;;;;4987199;28;21099;-71
2023/01/25 05:20:55;;;;;;;1999.90;999.90;;;1.20;99.90;;;;;;4990486;28;20442;-71
2023/01/25 05:23:22;;;;;;;1999.90;999.90;;;1.10;99.90;;;;;;4988138;28;20436;-71
2023/01/25 05:28:33;;;;;;;1999.90;999.90;;;1.20;99.90;;;;;;4988413;28;20475;-71
2023/01/25 05:31:03;;;;;;;1999.90;999.90;;;1.30;99.90;;;;;;4989206;28;20438;-71
2023/01/25 05:33:30;;;;;;;1999.90;999.90;;;1.70;99.90;;;;;;4988571;28;20934;-71
2023/01/25 05:35:57;;;;;;;1999.90;999.90;;;1.40;99.90;;;;;;4988580;28;20490;-71
2023/01/25 05:38:24;;;;;;;1999.90;999.90;;;1.50;99.90;;;;;;4985733;28;20444;-71
2023/01/25 05:40:51;;;;;;;1999.90;999.90;;;1.60;99.90;;;;;;4989548;28;20446;-71
2023/01/25 05:43:17;;;;;;;1999.90;999.90;;;1.50;99.90;;;;;;4986646;28;20511;-71
2023/01/25 05:45:44;;;;;;;1999.90;999.90;;;1.30;99.90;;;;;;4989094;28;20977;-72
2023/01/25 05:48:13;;;;;;;1999.90;999.90;;;1.30;99.90;;;;;;4987292;28;20504;-70
2023/01/25 05:50:39;;;;;;;1999.90;999.90;;;1.50;99.90;;;;;;4986955;28;20495;-71
2023/01/25 05:53:06;;;;;;;1999.90;999.90;;;1.20;99.90;;;;;;4988977;28;20497;-71
2023/01/25 05:55:35;;;;;;;1999.90;999.90;;;0.90;99.90;;;;;;4989020;28;20434;-70
2023/01/25 05:58:01;;;;;;;1999.90;999.90;;;0.90;99.90;;;;;;4989131;28;20466;-71
2023/01/25 06:00:28;;;;;;;1999.90;999.90;;;1.00;99.90;;;;;;4987511;28;21164;-70
2023/01/25 06:02:55;;;;;;;1999.90;999.90;;;1.00;99.90;;;;;;4988497;28;20489;-70
2023/01/25 06:05:23;;;;;;;1999.90;999.90;;;1.20;99.90;;;;;;4988777;28;20441;-70
2023/01/25 06:07:50;;;;;;;1999.90;999.90;;;1.30;99.90;;;;;;4988694;28;20838;-71
2023/01/25 06:10:17;;;;;;;1999.90;999.90;;;1.30;99.90;;;;;;4989231;28;21018;-70
2023/01/25 06:12:43;;;;;;;1999.90;999.90;;;1.30;99.90;;;;;;4988521;28;20442;-71
2023/01/25 06:15:10;;;;;;;1999.90;999.90;;;1.40;99.90;;;;;;4988026;28;20438;-70
2023/01/25 06:17:37;;;;;;;1999.90;999.90;;;1.20;99.90;;;;;;4988925;28;20494;-70
2023/01/25 06:20:04;;;;;;;1999.90;999.90;;;1.20;99.90;;;;;;4990239;28;20493;-71
2023/01/25 06:22:32;;;;;;;1999.90;999.90;;;1.20;99.90;;;;;;4988271;28;20454;-71
2023/01/25 06:24:59;;;;;;;1999.90;999.90;;;1.10;99.90;;;;;;4988475;28;20850;-70
2023/01/25 06:27:26;;;;;;;1999.90;999.90;;;0.90;99.90;;;;;;4986825;28;20488;-70
2023/01/25 06:29:52;;;;;;;1999.90;999.90;;;1.50;99.90;;;;;;4989356;28;20434;-71
2023/01/25 06:32:19;;;;;;;1999.90;999.90;;;1.10;99.90;;;;;;4987997;28;20438;-71
2023/01/25 06:34:46;;;;;;;1999.90;999.90;;;1.10;99.90;;;;;;4987904;28;20521;-70
2023/01/25 06:37:12;;;;;;;1999.90;999.90;;;1.20;99.90;;;;;;4987521;28;20437;-70
2023/01/25 06:39:40;;;;;;;1999.90;999.90;;;1.20;99.90;;;;;;4986579;28;20854;-71
2023/01/25 06:42:07;;;;;;;1999.90;999.90;;;1.70;99.90;;;;;;4989726;28;20514;-70
2023/01/25 06:44:33;;;;;;;1999.90;999.90;;;1.20;99.90;;;;;;4988680;28;20500;-71
2023/01/25 06:47:00;;;;;;;1999.90;999.90;;;1.10;99.90;;;;;;4986972;28;20438;-71
2023/01/25 06:49:27;;;;;;;1999.90;999.90;;;1.00;99.90;;;;;;4985902;28;20926;-70
2023/01/25 06:51:54;;;;;;;1999.90;999.90;;;1.40;99.90;;;;;;4981920;28;20437;-68
2023/01/25 06:54:21;;;;;;;1999.90;999.90;;;0.90;99.90;;;;;;4982484;28;20424;-68
2023/01/25 06:56:48;;;;;;;1999.90;999.90;;;1.10;99.90;;;;;;4970749;28;20483;-68
2023/01/25 06:59:15;;;;;;;1999.90;999.90;;;1.10;99.90;;;;;;4971937;28;20474;-68
2023/01/25 07:01:42;;;;;;;1999.90;999.90;;;1.60;99.90;;;;;;4984130;28;20440;-68
2023/01/25 07:04:11;;;;;;;1999.90;999.90;;;1.00;99.90;;;;;;4984358;28;20435;-68
2023/01/25 07:06:38;;;;;;;1999.90;999.90;;;1.20;99.90;;;;;;4990675;28;20418;-68
2023/01/25 07:09:07;;;;;;;1999.90;999.90;;;0.90;99.90;;;;;;4991252;28;20418;-69
2023/01/25 07:11:34;;;;;;;1999.90;999.90;;;1.00;99.90;;;;;;4989637;28;21143;-68
2023/01/25 07:14:02;;;;;;;1999.90;999.90;;;1.50;99.90;;;;;;4989907;28;20562;-69
2023/01/25 07:16:35;;;;;;;1999.90;999.90;;;1.00;99.90;;;;;;4981752;28;20431;-68
2023/01/25 07:19:02;;;;;;;1999.90;999.90;;;1.10;99.90;;;;;;4972217;28;20547;-68
2023/01/25 07:21:28;;;;;;;1999.90;999.90;;;1.00;99.90;;;;;;4972056;28;20584;-68
2023/01/25 07:24:00;;;;;;;1999.90;999.90;;;0.80;99.90;;;;;;4982829;28;20469;-68
2023/01/25 07:26:26;;;;;;;1999.90;999.90;;;1.00;99.90;;;;;;4983290;28;20855;-68
2023/01/25 07:28:54;;;;;;;1999.90;999.90;;;1.30;99.90;;;;;;4991690;28;20472;-68
2023/01/25 07:31:22;;;;;;;1999.90;999.90;;;1.00;99.90;;;;;;4991636;28;20414;-68
2023/01/25 07:33:49;;;;;;;1999.90;999.90;;;1.00;99.90;;;;;;4991596;28;20469;-68
2023/01/25 07:36:16;;;;;;;1999.90;999.90;;;1.00;99.90;;;;;;4990121;28;20772;-68
2023/01/25 07:38:43;;;;;;;1999.90;999.90;;;1.10;99.90;;;;;;4983073;28;20430;-68
2023/01/25 07:41:10;;;;;;;1999.90;999.90;;;1.20;99.90;;;;;;4991884;28;20418;-68
2023/01/25 07:43:37;;;;;;;1999.90;999.90;;;1.20;99.90;;;;;;4991511;28;20493;-67
2023/01/25 07:46:05;;;;;;;1999.90;999.90;;;1.30;99.90;;;;;;4991516;28;20460;-69
2023/01/25 07:48:33;;;;;;;1999.90;999.90;;;1.10;99.90;;;;;;4989877;28;20438;-68
2023/01/25 07:51:25;;;;;;;1999.90;999.90;;;1.20;99.90;;;;;;4983375;28;20426;-68
2023/01/25 07:53:54;;;;;;;1999.90;999.90;;;1.10;99.90;;;;;;4991508;28;20426;-68
2023/01/25 07:56:23;;;;;;;1999.90;999.90;;;1.10;99.90;;;;;;4990722;28;20829;-68
2023/01/25 07:58:51;;;;;;;1999.90;999.90;;;1.20;99.90;;;;;;4991008;28;20418;-68
2023/01/25 08:01:20;;;;;;;1999.90;999.90;;;1.10;99.90;;;;;;4983291;28;20423;-68
2023/01/25 08:03:49;;;;;;;1999.90;999.90;;;0.90;99.90;;;;;;4972098;28;20412;-68
2023/01/25 08:06:16;;;;;;;1999.90;999.90;;;1.10;99.90;;;;;;4971291;28;20858;-68
2023/01/25 08:08:44;;;;;;;1999.90;999.90;;;1.30;99.90;;;;;;4972280;28;20475;-69
2023/01/25 08:11:13;;;;;;;1999.90;999.90;;;1.30;99.90;;;;;;4979900;28;20465;-69
2023/01/25 08:13:40;;;;;;;1999.90;999.90;;;1.70;99.90;;;;;;4983363;28;20811;-68
2023/01/25 08:16:07;;;;;;;1999.90;999.90;;;1.30;99.90;;;;;;4990561;28;20434;-71
2023/01/25 08:18:33;;;;;;;1999.90;999.90;;;1.30;99.90;;;;;;4990822;28;20497;-71
2023/01/25 08:21:02;;;;;;;1999.90;999.90;;;1.30;99.90;;;;;;4990986;28;20422;-71
2023/01/25 08:23:29;;;;;;;1999.90;999.90;;;1.30;99.90;;;;;;4989290;28;20942;-71
2023/01/25 08:25:56;;;;;;;1999.90;999.90;;;1.50;99.90;;;;;;4982347;28;20422;-71
2023/01/25 08:28:22;;;;;;;1999.90;999.90;;;1.60;99.90;;;;;;4990631;28;20418;-71
2023/01/25 08:30:49;;;;;;;1999.90;999.90;;;2.00;99.90;;;;;;4993365;28;20418;-71
2023/01/25 08:33:16;;;;;;;1999.90;999.90;;;1.40;99.90;;;;;;4993015;28;20488;-71
2023/01/25 08:35:42;;;;;;;1999.90;999.90;;;1.20;99.90;;;;;;4985597;28;20927;-71
2023/01/25 08:38:10;;;;;;;1999.90;999.90;;;1.20;99.90;;;;;;4989710;28;20442;-71
2023/01/25 08:40:37;;;;;;;1999.90;999.90;;;1.20;99.90;;;;;;4990706;28;20491;-70
2023/01/25 08:43:04;;;;;;;1999.90;999.90;;;1.50;99.90;;;;;;4990121;28;20469;-71
2023/01/25 08:45:33;;;;;;;1999.90;999.90;;;1.10;99.90;;;;;;4988915;28;20492;-71
2023/01/25 08:48:00;;;;;;;1999.90;999.90;;;1.40;99.90;;;;;;4982087;28;20444;-71
2023/01/25 08:50:26;;;;;;;1999.90;999.90;;;1.10;99.90;;;;;;4982071;28;20442;-71
2023/01/25 08:52:53;;;;;;;1999.90;999.90;;;1.30;99.90;;;;;;4986176;28;20504;-71
2023/01/25 08:55:21;;;;;;;1999.90;999.90;;;1.20;99.90;;;;;;4991450;28;20441;-71
2023/01/25 08:57:48;;;;;;;1999.90;999.90;;;1.20;99.90;;;;;;4983473;28;20442;-71
2023/01/25 09:00:15;;;;;;;1999.90;999.90;;;1.40;99.90;;;;;;4989406;28;20442;-71
2023/01/25 09:02:42;;;;;;;1999.90;999.90;;;1.30;99.90;;;;;;4988191;28;20467;-71
2023/01/25 09:05:09;;;;;;;1999.90;999.90;;;1.30;99.90;;;;;;4981229;28;20540;-71
2023/01/25 09:07:37;;;;;;;1999.90;999.90;;;1.40;99.90;;;;;;4985231;28;20481;-71
2023/01/25 09:10:07;;;;;;;1999.90;999.90;;;1.90;99.90;;;;;;4988254;28;20430;-71
2023/01/25 09:12:35;;;;;;;1999.90;999.90;;;1.30;99.90;;;;;;4992008;28;20520;-71
2023/01/25 09:15:02;;;;;;;1999.90;999.90;;;1.50;99.90;;;;;;4988595;28;20854;-71
2023/01/25 09:17:29;;;;;;;1999.90;999.90;;;1.20;99.90;;;;;;4991650;28;20477;-71
2023/01/25 09:19:55;;;;;;;1999.90;999.90;;;1.20;99.90;;;;;;4986318;28;20442;-71
2023/01/25 09:22:22;;;;;;;1999.90;999.90;;;1.20;99.90;;;;;;4990013;28;20479;-70
2023/01/25 09:24:51;;;;;;;1999.90;999.90;;;1.10;99.90;;;;;;4986618;28;20846;-71
2023/01/25 09:27:17;;;;;;;1999.90;999.90;;;1.10;99.90;;;;;;4983179;28;20451;-71
2023/01/25 09:29:45;;;;;;;1999.90;999.90;;;1.00;99.90;;;;;;4987175;28;20861;-70
2023/01/25 09:32:12;;;;;;;1999.90;999.90;;;1.00;99.90;;;;;;4982128;28;20436;-71
2023/01/25 09:34:38;;;;;;;1999.90;999.90;;;1.00;99.90;;;;;;4985654;28;20514;-70
2023/01/25 09:37:05;;;;;;;1999.90;999.90;;;1.10;99.90;;;;;;4987561;28;20442;-70
2023/01/25 09:39:32;;;;;;;1999.90;999.90;;;1.00;99.90;;;;;;4994908;28;20509;-71
2023/01/25 09:42:23;;;;;;;1999.90;999.90;;;1.00;99.90;;;;;;5001685;28;20466;-71
2023/01/25 09:45:10;;;;;;;1999.90;999.90;;;1.20;99.90;;;;;;4981961;28;20439;-70
2023/01/25 09:47:45;;;;;;;1999.90;999.90;;;0.90;99.90;;;;;;4985627;28;20434;-71
2023/01/25 09:50:25;;;;;;;1999.90;999.90;;;1.00;99.90;;;;;;4989420;28;20492;-70
2023/01/25 09:53:04;;;;;;;1999.90;999.90;;;0.70;99.90;;;;;;4984112;28;20437;-70
2023/01/25 09:55:32;;;;;;;1999.90;999.90;;;0.40;99.90;;;;;;4985266;28;20442;-70
2023/01/25 09:58:01;;;;;;;1999.90;999.90;;;0.60;99.90;;;;;;4987897;28;20891;-69
2023/01/25 10:00:33;;;;;;;1999.90;999.90;;;0.70;99.90;;;;;;4990216;28;20438;-70
2023/01/25 10:03:05;;;;;;;1999.90;999.90;;;0.70;99.90;;;;;;4989978;28;20438;-70
2023/01/25 10:05:36;;;;;;;1999.90;999.90;;;0.70;99.90;;;;;;4989349;28;20442;-70
2023/01/25 10:08:08;;;;;;;1999.90;999.90;;;0.50;99.90;;;;;;4989509;28;21120;-71
2023/01/25 10:10:38;;;;;;;1999.90;999.90;;;0.50;99.90;;;;;;4986571;28;20434;-71
2023/01/25 10:13:09;;;;;;;1999.90;999.90;;;0.60;99.90;;;;;;4979360;28;20430;-70
2023/01/25 10:15:41;;;;;;;1999.90;999.90;;;0.70;99.90;;;;;;4980244;28;20426;-70
2023/01/25 10:18:20;;;;;;;1999.90;999.90;;;0.80;99.90;;;;;;4985538;28;20823;-71
2023/01/25 10:20:53;;;;;;;1999.90;999.90;;;0.80;99.90;;;;;;4982951;28;20910;-71
2023/01/25 10:23:34;;;;;;;1999.90;999.90;;;0.80;99.90;;;;;;4975629;28;20921;-71
2023/01/25 10:26:05;;;;;;;1999.90;999.90;;;1.20;99.90;;;;;;4972294;28;20474;-71
2023/01/25 10:28:40;;;;;;;1999.90;999.90;;;1.10;99.90;;;;;;4973000;28;20420;-71
2023/01/25 10:31:17;;;;;;;1999.90;999.90;;;1.60;99.90;;;;;;4972680;28;20420;-71
2023/01/25 10:33:45;;;;;;;1999.90;999.90;;;1.20;99.90;;;;;;4990001;28;20445;-71
2023/01/25 10:36:14;;;;;;;1999.90;999.90;;;1.50;99.90;;;;;;4990002;28;20957;-71
2023/01/25 10:38:44;;;;;;;1999.90;999.90;;;1.30;99.90;;;;;;4983191;28;20423;-71
2023/01/25 10:41:16;;;;;;;1999.90;999.90;;;1.20;99.90;;;;;;4992267;28;20516;-70
2023/01/25 10:43:43;;;;;;;1999.90;999.90;;;1.10;99.90;;;;;;4985168;28;20439;-70
2023/01/25 10:46:20;;;;;;;1999.90;999.90;;;1.10;99.90;;;;;;4989755;28;20477;-70
2023/01/25 10:48:46;;;;;;;1999.90;999.90;;;1.00;99.90;;;;;;4975939;28;20505;-70
2023/01/25 10:51:29;;;;;;;1999.90;999.90;;;1.50;99.90;;;;;;4980565;28;20991;-71
2023/01/25 10:54:01;;;;;;;1999.90;999.90;;;0.90;99.90;;;;;;4984451;28;20529;-71
2023/01/25 10:56:28;;;;;;;1999.90;999.90;;;1.20;99.90;;;;;;4988175;28;20480;-71
2023/01/25 10:59:08;;;;;;;1999.90;999.90;;;0.90;99.90;;;;;;4989997;28;20482;-71
2023/01/25 11:01:37;;;;;;;1999.90;999.90;;;0.90;99.90;;;;;;4981108;28;20517;-71
2023/01/25 11:04:23;;;;;;;1999.90;999.90;;;1.00;99.90;;;;;;4988404;28;20465;-71
2023/01/25 11:06:51;;;;;;;1999.90;999.90;;;1.20;99.90;;;;;;4981621;28;20447;-71
2023/01/25 11:09:33;;;;;;;1999.90;999.90;;;1.30;99.90;;;;;;4989368;28;20478;-70
2023/01/25 11:12:01;;;;;;;1999.90;999.90;;;1.50;99.90;;;;;;4988144;28;20484;-70
2023/01/25 11:14:30;;;;;;;1999.90;999.90;;;1.30;99.90;;;;;;4984522;28;20849;-71
2023/01/25 11:17:00;;;;;;;1999.90;999.90;;;1.10;99.90;;;;;;4989120;28;20445;-71
2023/01/25 11:19:31;;;;;;;1999.90;999.90;;;0.90;99.90;;;;;;4982837;28;20423;-71
2023/01/25 11:21:59;;;;;;;1999.90;999.90;;;1.40;99.90;;;;;;4990887;28;20433;-71
2023/01/25 11:24:27;;;;;;;1999.90;999.90;;;1.10;99.90;;;;;;4981025;28;20926;-71
2023/01/25 11:27:13;;;;;;;1999.90;999.90;;;1.30;99.90;;;;;;4971749;28;20416;-71
2023/01/25 11:29:40;;;;;;;1999.90;999.90;;;1.50;99.90;;;;;;4980522;28;20434;-71
2023/01/25 11:32:19;;;;;;;1999.90;999.90;;;1.40;99.90;;;;;;4988523;28;20442;-70
2023/01/25 11:34:45;;;;;;;1999.90;999.90;;;1.30;99.90;;;;;;4988235;28;20476;-71
2023/01/25 11:37:27;;;;;;;1999.90;999.90;;;1.20;99.90;;;;;;4983302;28;20924;-70
2023/01/25 11:40:02;;;;;;;1999.90;999.90;;;1.20;99.90;;;;;;4971141;28;20893;-71
2023/01/25 11:42:41;;;;;;;1999.90;999.90;;;1.00;99.90;;;;;;4971604;28;20443;-71
2023/01/25 11:45:40;;;;;;;1999.90;999.90;;;1.60;99.90;;;;;;4971933;28;20420;-71
2023/01/25 11:48:29;;;;;;;1999.90;999.90;;;1.10;99.90;;;;;;4982082;28;20430;-71
2023/01/25 11:51:02;;;;;;;1999.90;999.90;;;1.20;99.90;;;;;;4981506;28;20446;-71
2023/01/25 11:53:52;;;;;;;1999.90;999.90;;;1.40;99.90;;;;;;4973391;28;20430;-71
2023/01/25 11:56:31;;;;;;;1999.90;999.90;;;1.60;99.90;;;;;;4971236;28;20478;-71
2023/01/25 11:59:11;;;;;;;1999.90;999.90;;;1.50;99.90;;;;;;4972504;28;20435;-70
2023/01/25 12:01:55;;;;;;;1999.90;999.90;;;1.30;99.90;;;;;;4979307;28;20897;-70
2023/01/25 12:05:01;;;;;;;1999.90;999.90;;;1.20;99.90;;;;;;4972137;28;20467;-71
2023/01/25 12:07:39;;;;;;;1999.90;999.90;;;1.20;99.90;;;;;;4968224;28;20436;-70
2023/01/25 12:10:22;;;;;;;1999.90;999.90;;;1.80;99.90;;;;;;4975336;28;20438;-70
2023/01/25 12:12:56;;;;;;;1999.90;999.90;;;1.10;99.90;;;;;;4990606;28;20441;-71
2023/01/25 12:15:46;;;;;;;1999.90;999.90;;;1.10;99.90;;;;;;4992687;28;20512;-70
2023/01/25 12:18:25;;;;;;;1999.90;999.90;;;1.10;99.90;;;;;;4968803;28;20434;-71
2023/01/25 12:21:03;;;;;;;1999.90;999.90;;;0.90;99.90;;;;;;4983290;28;20424;-70